createdAt,value
2022-10-28T00:01:43.474Z,5.10
2022-10-28T00:04:46.518Z,4.82
2022-10-28T00:07:51.171Z,4.38
2022-10-28T00:10:54.792Z,5.03
2022-10-28T00:14:00.442Z,4.90
2022-10-28T00:17:03.508Z,4.13
2022-10-28T00:20:08.419Z,4.40
2022-10-28T00:23:12.848Z,4.78
2022-10-28T00:26:18.246Z,4.25
2022-10-28T00:29:21.715Z,4.88
2022-10-28T00:32:25.370Z,4.90
2022-10-28T00:35:28.397Z,4.65
2022-10-28T00:38:33.333Z,4.95
2022-10-28T00:41:40.571Z,4.35
2022-10-28T00:44:59.903Z,4.93
2022-10-28T00:48:05.697Z,4.45
2022-10-28T00:51:10.394Z,4.60
2022-10-28T00:54:17.209Z,4.43
2022-10-28T00:57:26.851Z,4.45
2022-10-28T01:00:30.219Z,4.82
2022-10-28T01:03:33.246Z,4.53
2022-10-28T01:06:36.569Z,4.22
2022-10-28T01:09:41.711Z,4.53
2022-10-28T01:13:04.217Z,4.90
2022-10-28T01:16:24.803Z,4.80
2022-10-28T01:20:22.449Z,4.68
2022-10-28T01:23:35.268Z,4.75
2022-10-28T01:27:21.078Z,4.72
2022-10-28T01:30:27.062Z,3.95
2022-10-28T01:33:37.670Z,4.95
2022-10-28T01:36:55.825Z,4.43
2022-10-28T01:40:11.169Z,4.60
2022-10-28T01:43:24.446Z,4.28
2022-10-28T01:46:32.779Z,4.30
2022-10-28T01:49:45.590Z,4.20
2022-10-28T01:52:53.082Z,3.78
2022-10-28T01:56:02.120Z,4.63
2022-10-28T01:59:10.443Z,5.00
2022-10-28T02:02:15.463Z,4.72
2022-10-28T02:05:45.838Z,4.20
2022-10-28T02:09:07.287Z,4.75
2022-10-28T02:12:27.830Z,4.05
2022-10-28T02:15:45.529Z,4.20
2022-10-28T02:19:00.935Z,3.97
2022-10-28T02:22:19.664Z,4.03
2022-10-28T02:25:28.661Z,3.88
2022-10-28T02:28:41.773Z,4.15
2022-10-28T02:31:52.082Z,4.05
2022-10-28T02:35:00.131Z,4.32
2022-10-28T02:38:12.005Z,3.95
2022-10-28T02:41:21.511Z,4.25
2022-10-28T02:44:30.485Z,3.75
2022-10-28T02:47:38.665Z,3.88
2022-10-28T02:50:48.319Z,4.10
2022-10-28T02:54:01.935Z,3.90
2022-10-28T02:57:11.207Z,3.80
2022-10-28T03:00:19.307Z,5.10
2022-10-28T03:03:24.921Z,3.65
2022-10-28T03:06:28.942Z,4.38
2022-10-28T03:09:33.515Z,4.15
2022-10-28T03:12:36.510Z,4.10
2022-10-28T03:15:39.513Z,4.35
2022-10-28T03:18:44.141Z,4.68
2022-10-28T03:21:47.062Z,4.78
2022-10-28T03:24:51.516Z,4.95
2022-10-28T03:27:54.476Z,5.00
2022-10-28T03:30:57.423Z,4.45
2022-10-28T03:34:00.499Z,4.55
2022-10-28T03:37:03.438Z,4.97
2022-10-28T03:40:09.649Z,4.53
2022-10-28T03:43:13.116Z,4.43
2022-10-28T03:46:16.363Z,4.45
2022-10-28T03:49:19.425Z,4.80
2022-10-28T03:52:22.446Z,4.43
2022-10-28T03:55:27.569Z,4.38
2022-10-28T03:58:31.019Z,4.45
2022-10-28T04:01:34.717Z,4.60
2022-10-28T04:04:37.726Z,4.45
2022-10-28T04:07:40.629Z,4.80
2022-10-28T04:10:47.427Z,5.03
2022-10-28T04:13:50.803Z,5.18
2022-10-28T04:16:53.766Z,4.75
2022-10-28T04:19:56.804Z,5.28
2022-10-28T04:23:00.534Z,5.10
2022-10-28T04:26:06.069Z,5.60
2022-10-28T04:29:09.425Z,4.70
2022-10-28T04:32:12.666Z,5.10
2022-10-28T04:35:16.048Z,4.93
2022-10-28T04:38:19.065Z,4.97
2022-10-28T04:41:23.458Z,4.88
2022-10-28T04:44:26.439Z,5.18
2022-10-28T04:47:29.550Z,5.22
2022-10-28T04:50:32.938Z,5.50
2022-10-28T04:53:35.971Z,5.67
2022-10-28T04:56:40.495Z,5.30
2022-10-28T04:59:43.584Z,5.75
2022-10-28T05:02:46.585Z,6.53
2022-10-28T05:05:49.723Z,5.72
2022-10-28T05:08:52.645Z,5.72
2022-10-28T05:11:56.951Z,4.70
2022-10-28T05:14:59.922Z,5.82
2022-10-28T05:18:02.908Z,5.72
2022-10-28T05:21:06.376Z,5.25
2022-10-28T05:24:09.959Z,5.95
2022-10-28T05:27:14.377Z,5.20
2022-10-28T05:30:17.597Z,5.78
2022-10-28T05:33:20.722Z,6.20
2022-10-28T05:36:23.758Z,5.88
2022-10-28T05:39:26.856Z,5.80
2022-10-28T05:42:31.388Z,6.68
2022-10-28T05:45:34.457Z,5.97
2022-10-28T05:48:37.979Z,6.93
2022-10-28T05:51:41.049Z,6.63
2022-10-28T05:54:44.050Z,7.18
2022-10-28T05:57:49.575Z,7.30
2022-10-28T06:00:52.693Z,6.75
2022-10-28T06:03:55.844Z,7.13
2022-10-28T06:06:59.040Z,6.53
2022-10-28T06:10:02.827Z,6.97
2022-10-28T06:13:07.236Z,7.65
2022-10-28T06:16:10.299Z,7.05
2022-10-28T06:19:13.285Z,7.47
2022-10-28T06:22:16.403Z,6.53
2022-10-28T06:25:22.551Z,7.55
2022-10-28T06:28:27.803Z,8.27
2022-10-28T06:31:31.859Z,7.40
2022-10-28T06:34:34.816Z,8.00
2022-10-28T06:37:37.920Z,6.82
2022-10-28T06:40:40.881Z,7.47
2022-10-28T06:43:45.245Z,7.38
2022-10-28T06:46:49.801Z,7.22
2022-10-28T06:49:52.852Z,7.57
2022-10-28T06:52:57.378Z,8.00
2022-10-28T06:56:00.504Z,7.20
2022-10-28T06:59:04.965Z,8.05
2022-10-28T07:02:08.212Z,7.32
2022-10-28T07:05:11.574Z,7.30
2022-10-28T07:08:14.956Z,7.37
2022-10-28T07:11:18.987Z,7.90
2022-10-28T07:14:23.401Z,6.97
2022-10-28T07:17:26.570Z,8.63
2022-10-28T07:20:32.010Z,8.10
2022-10-28T07:23:35.127Z,7.00
2022-10-28T07:26:38.118Z,7.35
2022-10-28T07:29:42.411Z,7.72
2022-10-28T07:32:45.439Z,7.57
2022-10-28T07:35:48.661Z,8.10
2022-10-28T07:38:53.411Z,8.13
2022-10-28T07:41:56.480Z,7.50
2022-10-28T07:45:00.951Z,7.55
2022-10-28T07:48:05.076Z,7.68
2022-10-28T07:54:14.370Z,6.15
2022-10-28T07:57:17.455Z,7.20
2022-10-28T08:00:22.013Z,7.72
2022-10-28T08:03:31.366Z,7.68
2022-10-28T08:06:41.172Z,6.65
2022-10-28T08:09:44.331Z,7.80
2022-10-28T08:12:47.443Z,6.78
2022-10-28T08:15:54.989Z,7.63
2022-10-28T08:18:58.221Z,7.30
2022-10-28T08:22:02.344Z,7.73
2022-10-28T08:28:08.865Z,7.13
2022-10-28T08:31:13.335Z,6.90
2022-10-28T08:34:16.359Z,7.65
2022-10-28T08:37:19.881Z,7.70
2022-10-28T08:40:33.576Z,7.45
2022-10-28T08:43:58.161Z,7.13
2022-10-28T08:47:17.817Z,6.95
2022-10-28T08:50:24.899Z,6.80
2022-10-28T08:53:35.056Z,6.93
2022-10-28T08:56:45.944Z,6.78
2022-10-28T08:59:54.570Z,5.90
2022-10-28T09:03:15.052Z,7.38
2022-10-28T09:06:18.102Z,6.75
2022-10-28T09:09:24.436Z,5.82
2022-10-28T09:12:45.581Z,5.82
2022-10-28T09:16:00.944Z,5.93
2022-10-28T09:19:16.627Z,6.63
2022-10-28T09:22:26.300Z,6.63
2022-10-28T09:25:42.678Z,7.15
2022-10-28T09:29:02.792Z,6.55
2022-10-28T09:32:24.170Z,6.35
2022-10-28T09:35:34.831Z,6.47
2022-10-28T09:38:38.939Z,6.15
2022-10-28T09:44:52.618Z,5.93
2022-10-28T09:48:02.743Z,6.07
2022-10-28T09:51:22.462Z,6.82
2022-10-28T09:54:35.673Z,6.20
2022-10-28T09:57:38.664Z,6.05
2022-10-28T10:00:42.262Z,6.50
2022-10-28T10:03:48.698Z,6.40
2022-10-28T10:06:58.999Z,7.10
2022-10-28T10:10:12.650Z,7.15
2022-10-28T10:13:21.606Z,6.35
2022-10-28T10:16:39.870Z,7.60
2022-10-28T10:20:05.286Z,7.53
2022-10-28T10:23:27.801Z,7.45
2022-10-28T10:26:34.382Z,6.57
2022-10-28T10:29:38.648Z,6.20
2022-10-28T10:32:49.296Z,6.43
2022-10-28T10:36:00.355Z,6.65
2022-10-28T10:39:05.240Z,7.13
2022-10-28T10:42:17.777Z,6.95
2022-10-28T10:45:25.348Z,7.15
2022-10-28T10:48:29.128Z,6.18
2022-10-28T10:51:32.413Z,6.72
2022-10-28T10:54:39.343Z,5.85
2022-10-28T10:57:47.702Z,6.95
2022-10-28T11:00:53.667Z,6.43
2022-10-28T11:04:01.659Z,6.38
2022-10-28T11:07:04.708Z,6.32
2022-10-28T11:10:24.320Z,6.20
2022-10-28T11:13:28.391Z,6.65
2022-10-28T11:19:37.165Z,6.05
2022-10-28T11:22:52.724Z,6.38
2022-10-28T11:26:03.340Z,5.82
2022-10-28T11:29:14.122Z,5.95
2022-10-28T11:32:48.792Z,6.95
2022-10-28T11:36:16.216Z,6.68
2022-10-28T11:39:25.437Z,6.40
2022-10-28T11:42:47.970Z,6.70
2022-10-28T11:46:04.567Z,6.30
2022-10-28T11:49:39.260Z,6.07
2022-10-28T11:53:15.472Z,6.07
2022-10-28T11:56:34.959Z,6.13
2022-10-28T12:00:15.402Z,6.22
2022-10-28T12:03:41.262Z,5.82
2022-10-28T12:07:22.156Z,7.55
2022-10-28T12:10:46.362Z,6.13
2022-10-28T12:17:20.710Z,6.25
2022-10-28T12:20:32.650Z,6.80
2022-10-28T12:23:39.259Z,6.35
2022-10-28T12:26:46.722Z,5.57
2022-10-28T12:29:59.718Z,6.78
2022-10-28T12:33:14.465Z,7.00
2022-10-28T12:36:28.386Z,6.93
2022-10-28T12:39:38.536Z,7.45
2022-10-28T12:42:46.773Z,6.72
2022-10-28T12:45:53.450Z,6.47
2022-10-28T12:49:11.462Z,6.70
2022-10-28T12:52:27.449Z,7.05
2022-10-28T12:55:38.473Z,7.25
2022-10-28T12:58:55.785Z,7.43
2022-10-28T13:02:01.353Z,7.88
2022-10-28T13:05:08.342Z,7.47
2022-10-28T13:09:02.070Z,6.82
2022-10-28T13:13:15.954Z,6.47
2022-10-28T13:16:44.340Z,7.15
2022-10-28T13:20:18.228Z,6.82
2022-10-28T13:23:33.882Z,6.80
2022-10-28T13:26:43.275Z,7.05
2022-10-28T13:29:54.953Z,6.40
2022-10-28T13:33:06.840Z,6.88
2022-10-28T13:36:20.013Z,7.20
2022-10-28T13:39:39.856Z,7.05
2022-10-28T13:42:52.400Z,6.65
2022-10-28T13:45:57.284Z,6.60
2022-10-28T13:49:25.334Z,6.63
2022-10-28T13:52:29.715Z,6.72
2022-10-28T13:55:45.586Z,5.88
2022-10-28T13:58:55.100Z,5.70
2022-10-28T14:02:34.725Z,5.90
2022-10-28T14:05:58.323Z,6.18
2022-10-28T14:09:03.849Z,6.18
2022-10-28T14:12:24.660Z,5.60
2022-10-28T14:15:32.985Z,6.03
2022-10-28T14:18:44.998Z,5.32
2022-10-28T14:22:02.447Z,5.95
2022-10-28T14:26:00.851Z,6.30
2022-10-28T14:29:28.566Z,5.72
2022-10-28T14:32:45.211Z,5.85
2022-10-28T14:35:55.341Z,6.00
2022-10-28T14:39:39.714Z,5.15
2022-10-28T14:43:19.621Z,5.80
2022-10-28T14:46:51.375Z,5.20
2022-10-28T14:50:02.702Z,5.90
2022-10-28T14:53:13.221Z,5.80
2022-10-28T14:56:26.540Z,6.35
2022-10-28T14:59:38.308Z,6.95
2022-10-28T15:02:41.679Z,6.35
2022-10-28T15:05:45.192Z,5.95
2022-10-28T15:08:48.281Z,5.97
2022-10-28T15:11:57.114Z,6.97
2022-10-28T15:15:01.483Z,6.47
2022-10-28T15:18:23.147Z,6.75
2022-10-28T15:21:26.210Z,5.63
2022-10-28T15:24:29.341Z,6.35
2022-10-28T15:27:35.737Z,5.43
2022-10-28T15:30:46.774Z,5.90
2022-10-28T15:33:50.255Z,6.13
2022-10-28T15:40:24.539Z,6.05
2022-10-28T15:43:29.848Z,5.53
2022-10-28T15:46:35.631Z,6.25
2022-10-28T15:49:41.975Z,6.00
2022-10-28T15:52:48.081Z,5.88
2022-10-28T15:56:20.172Z,6.05
2022-10-28T15:59:26.504Z,5.65
2022-10-28T16:02:45.801Z,5.95
2022-10-28T16:05:49.461Z,5.47
2022-10-28T16:09:16.396Z,5.35
2022-10-28T16:12:24.995Z,5.68
2022-10-28T16:15:28.548Z,5.13
2022-10-28T16:18:36.076Z,5.95
2022-10-28T16:21:39.956Z,5.85
2022-10-28T16:24:43.499Z,6.05
2022-10-28T16:27:46.576Z,6.00
2022-10-28T16:30:53.459Z,6.78
2022-10-28T16:34:00.060Z,5.43
2022-10-28T16:37:03.362Z,6.15
2022-10-28T16:40:15.515Z,6.23
2022-10-28T16:43:30.541Z,5.68
2022-10-28T16:46:33.618Z,6.35
2022-10-28T16:49:37.916Z,6.60
2022-10-28T16:52:40.989Z,5.90
2022-10-28T16:55:43.989Z,6.70
2022-10-28T16:58:47.022Z,5.85
2022-10-28T17:01:52.151Z,6.45
2022-10-28T17:04:57.740Z,6.32
2022-10-28T17:08:04.395Z,6.15
2022-10-28T17:11:15.937Z,6.43
2022-10-28T17:14:18.868Z,5.85
2022-10-28T17:17:21.867Z,5.22
2022-10-28T17:20:26.326Z,5.70
2022-10-28T17:23:30.053Z,6.05
2022-10-28T17:26:33.179Z,6.43
2022-10-28T17:29:36.589Z,5.60
2022-10-28T17:32:39.561Z,5.53
2022-10-28T17:35:43.882Z,5.53
2022-10-28T17:38:48.639Z,6.47
2022-10-28T17:41:51.597Z,6.32
2022-10-28T17:44:54.698Z,6.10
2022-10-28T17:47:57.817Z,5.88
2022-10-28T17:51:02.377Z,5.13
2022-10-28T17:54:06.094Z,5.78
2022-10-28T17:57:09.101Z,6.88
2022-10-28T18:00:13.594Z,5.97
2022-10-28T18:03:16.659Z,6.22
2022-10-28T18:06:21.015Z,7.25
2022-10-28T18:09:24.764Z,6.43
2022-10-28T18:12:27.774Z,6.75
2022-10-28T18:15:30.702Z,6.63
2022-10-28T18:18:38.997Z,6.35
2022-10-28T18:21:46.800Z,7.05
2022-10-28T18:24:50.082Z,7.32
2022-10-28T18:27:53.130Z,6.97
2022-10-28T18:30:56.132Z,6.78
2022-10-28T18:34:01.205Z,7.13
2022-10-28T18:37:07.874Z,7.30
2022-10-28T18:40:12.375Z,7.70
2022-10-28T18:43:16.446Z,7.32
2022-10-28T18:46:19.420Z,7.10
2022-10-28T18:49:22.562Z,7.47
2022-10-28T18:52:26.974Z,7.20
2022-10-28T18:55:30.039Z,7.53
2022-10-28T18:58:33.329Z,7.55
2022-10-28T19:01:37.463Z,8.53
2022-10-28T19:07:45.498Z,6.65
2022-10-28T19:10:48.801Z,7.63
2022-10-28T19:13:51.857Z,6.43
2022-10-28T19:16:54.873Z,8.43
2022-10-28T19:19:57.937Z,7.53
2022-10-28T19:23:02.340Z,8.05
2022-10-28T19:26:06.757Z,7.03
2022-10-28T19:29:11.377Z,6.70
2022-10-28T19:32:14.344Z,7.07
2022-10-28T19:35:17.528Z,7.82
2022-10-28T19:38:21.822Z,8.33
2022-10-28T19:44:29.513Z,7.43
2022-10-28T19:47:32.519Z,7.35
2022-10-28T19:50:35.496Z,7.95
2022-10-28T19:53:39.749Z,7.60
2022-10-28T19:56:45.157Z,7.35
2022-10-28T19:59:48.192Z,7.05
2022-10-28T20:02:51.153Z,7.65
2022-10-28T20:06:03.657Z,8.25
2022-10-28T20:09:08.616Z,7.03
2022-10-28T20:12:11.595Z,7.32
2022-10-28T20:15:14.692Z,7.10
2022-10-28T20:18:17.788Z,7.35
2022-10-28T20:21:22.992Z,6.65
2022-10-28T20:24:27.393Z,6.82
2022-10-28T20:27:30.365Z,7.32
2022-10-28T20:30:33.327Z,6.93
2022-10-28T20:33:38.246Z,7.38
2022-10-28T20:36:44.005Z,6.63
2022-10-28T20:39:49.730Z,7.57
2022-10-28T20:42:53.671Z,11.38
2022-10-28T20:45:59.627Z,12.33
2022-10-28T20:49:02.988Z,10.45
2022-10-28T20:52:06.651Z,9.17
2022-10-28T20:55:11.705Z,7.28
2022-10-28T20:58:14.916Z,7.20
2022-10-28T21:01:21.523Z,7.38
2022-10-28T21:04:24.693Z,7.78
2022-10-28T21:07:27.845Z,7.60
2022-10-28T21:10:32.384Z,8.63
2022-10-28T21:13:35.642Z,8.48
2022-10-28T21:16:38.666Z,8.00
2022-10-28T21:19:41.639Z,7.68
2022-10-28T21:22:44.667Z,6.32
2022-10-28T21:25:55.001Z,7.60
2022-10-28T21:28:58.814Z,7.25
2022-10-28T21:32:02.196Z,7.35
2022-10-28T21:35:06.604Z,6.63
2022-10-28T21:38:10.462Z,6.30
2022-10-28T21:41:17.516Z,6.13
2022-10-28T21:44:20.569Z,6.13
2022-10-28T21:47:23.532Z,5.85
2022-10-28T21:50:26.486Z,7.28
2022-10-28T21:53:34.044Z,7.03
2022-10-28T21:56:38.463Z,6.38
2022-10-28T21:59:41.469Z,7.57
2022-10-28T22:02:44.504Z,6.63
2022-10-28T22:05:51.502Z,6.65
2022-10-28T22:08:55.593Z,6.95
2022-10-28T22:15:02.788Z,5.65
2022-10-28T22:18:06.084Z,6.05
2022-10-28T22:21:12.285Z,7.57
2022-10-28T22:24:15.527Z,6.78
2022-10-28T22:27:19.956Z,7.43
2022-10-28T22:30:22.979Z,6.97
2022-10-28T22:33:25.985Z,6.55
2022-10-28T22:36:30.950Z,6.57
2022-10-28T22:39:33.954Z,6.55
2022-10-28T22:42:38.228Z,7.50
2022-10-28T22:45:41.242Z,6.53
2022-10-28T22:48:45.234Z,7.05
2022-10-28T22:51:48.275Z,7.32
2022-10-28T22:54:51.189Z,7.30
2022-10-28T22:57:56.681Z,7.85
2022-10-28T23:01:08.631Z,7.95
2022-10-28T23:04:13.047Z,8.00
2022-10-28T23:10:18.808Z,9.13
2022-10-28T23:13:23.171Z,8.63
2022-10-28T23:16:26.789Z,9.90
2022-10-28T23:19:29.738Z,11.25
2022-10-28T23:22:32.716Z,10.82
2022-10-28T23:25:35.685Z,12.18
2022-10-28T23:28:40.787Z,11.50
2022-10-28T23:31:43.858Z,12.25
2022-10-28T23:34:46.853Z,11.82
2022-10-28T23:37:49.861Z,12.00
2022-10-28T23:40:58.487Z,11.95
2022-10-28T23:44:03.006Z,11.23
2022-10-28T23:47:07.502Z,11.13
2022-10-28T23:50:10.954Z,10.93
2022-10-28T23:53:14.537Z,10.07
2022-10-28T23:56:17.559Z,10.50
2022-10-28T23:59:21.884Z,9.88
